Terminal Aerodrome Forecast
Issued by NWS Louisville, KY

Home | Current Version | Previous Version | Text Only | Print | Product List | Glossary On
Versions: 1 2 3 4 5 6 7 8 9 10 11 12 13 14 15
000
FTUS43 KLMK 280500
TAFLEX
TAF
KLEX 280523Z 2806/0106 05006KT P6SM BKN100
     FM280900 07007KT P6SM BKN060
     FM281500 09006KT P6SM FEW020 BKN050
     FM010100 10005KT P6SM BKN020=

USA.gov is the U.S. government's official web portal to all federal, state and local government web resources and services.